Time;durP1;ratioP1;P1;durP2;ratioP2;P2;SDS_P1;SDS_P2;PMS_P1;PMS_P2;Temp;Humidity;BMP_temperature;BMP_pressure;BME280_temperature;BME280_humidity;BME280_pressure;Samples;Min_cycle;Max_cycle;Signal;HPM_P1;HPM_P2
2022/07/07 00:02:53;;;;;;;5.80;2.65;;;;;;;19.08;61.46;100168.69;10415471;28;20448;-73
2022/07/07 00:07:54;;;;;;;6.80;2.65;;;;;;;19.19;61.90;100206.66;10419859;28;20466;-73
2022/07/07 00:12:55;;;;;;;9.23;2.50;;;;;;;19.06;62.72;100213.88;10415954;28;20041;-72
2022/07/07 00:17:56;;;;;;;6.93;2.50;;;;;;;18.69;63.29;100165.41;10411545;28;20045;-72
2022/07/07 00:22:56;;;;;;;4.15;2.72;;;;;;;18.96;63.37;100199.28;10419082;28;20046;-72
2022/07/07 00:27:57;;;;;;;5.25;2.45;;;;;;;18.85;63.52;100179.38;10417664;28;20041;-72
2022/07/07 00:32:58;;;;;;;8.25;2.83;;;;;;;18.90;63.84;100183.00;10419378;28;20049;-72
2022/07/07 00:37:59;;;;;;;6.00;2.67;;;;;;;18.14;63.96;100068.63;10417284;28;20148;-72
2022/07/07 00:43:00;;;;;;;12.07;3.00;;;;;;;18.85;64.05;100204.41;10415809;28;20038;-72
2022/07/07 00:48:00;;;;;;;10.98;3.00;;;;;;;18.66;64.78;100171.25;10414075;28;20049;-73
2022/07/07 00:53:01;;;;;;;5.63;2.70;;;;;;;18.09;65.18;100090.00;10416882;28;20132;-72
2022/07/07 00:58:02;;;;;;;8.52;2.95;;;;;;;18.81;65.28;100188.91;10418158;28;20396;-72
2022/07/07 01:03:03;;;;;;;16.27;4.05;;;;;;;18.70;65.72;100183.22;10418271;28;20080;-72
2022/07/07 01:08:04;;;;;;;23.02;3.03;;;;;;;18.82;65.79;100193.28;10416959;28;20420;-72
2022/07/07 01:13:05;;;;;;;9.35;3.20;;;;;;;18.84;66.32;100204.63;10416518;28;20037;-72
2022/07/07 01:18:06;;;;;;;36.70;5.72;;;;;;;18.83;67.21;100190.34;10416409;28;20527;-72
2022/07/07 01:23:08;;;;;;;11.48;3.83;;;;;;;18.80;67.55;100187.28;10417126;28;20550;-72
2022/07/07 01:28:09;;;;;;;8.15;3.58;;;;;;;18.73;67.89;100205.38;10417366;28;20049;-73
2022/07/07 01:33:10;;;;;;;5.00;2.92;;;;;;;17.44;68.52;100027.78;10417168;28;20041;-72
2022/07/07 01:38:10;;;;;;;9.73;3.15;;;;;;;18.15;69.64;100207.38;10416459;28;20049;-73
2022/07/07 01:43:11;;;;;;;17.23;4.22;;;;;;;17.43;70.02;100125.50;10416000;28;20052;-72
2022/07/07 01:48:12;;;;;;;4.55;2.90;;;;;;;17.88;70.24;100203.28;10415759;28;20056;-73
2022/07/07 01:53:13;;;;;;;12.30;3.95;;;;;;;17.86;71.19;100216.09;10415158;28;20033;-73
2022/07/07 01:58:13;;;;;;;9.40;4.30;;;;;;;17.54;74.36;100165.09;10414891;28;20083;-73
2022/07/07 02:03:14;;;;;;;18.45;5.22;;;;;;;17.23;76.72;100120.25;10414934;28;20040;-72
2022/07/07 02:08:16;;;;;;;23.55;6.40;;;;;;;17.77;81.81;100221.78;10414976;28;20102;-72
2022/07/07 02:13:17;;;;;;;11.07;5.07;;;;;;;17.79;82.34;100234.97;10415473;28;20559;-72
2022/07/07 02:18:17;;;;;;;12.02;5.97;;;;;;;17.89;84.68;100227.25;10414687;28;20098;-72
2022/07/07 02:23:18;;;;;;;25.58;6.90;;;;;;;18.01;86.16;100244.31;10414650;28;20064;-73
2022/07/07 02:28:20;;;;;;;21.10;6.72;;;;;;;18.14;87.51;100246.06;10414633;28;20044;-72
2022/07/07 02:33:22;;;;;;;14.38;7.75;;;;;;;18.33;88.27;100248.78;10413660;28;20417;-73
2022/07/07 02:38:23;;;;;;;14.27;7.65;;;;;;;18.45;87.84;100228.19;10413219;28;20060;-73
2022/07/07 02:43:25;;;;;;;13.75;8.32;;;;;;;18.79;88.35;100256.44;10413926;28;20041;-73
2022/07/07 02:48:26;;;;;;;17.70;8.20;;;;;;;19.18;87.33;100218.50;10412043;28;20044;-73
2022/07/07 02:53:27;;;;;;;12.15;5.80;;;;;;;20.11;85.09;100236.00;10414557;28;20104;-73
2022/07/07 02:58:28;;;;;;;11.82;5.55;;;;;;;20.98;81.59;100247.66;10411735;28;20049;-72
2022/07/07 03:03:29;;;;;;;17.45;5.80;;;;;;;21.60;78.67;100240.78;10413244;28;20041;-72
2022/07/07 03:08:29;;;;;;;12.70;4.00;;;;;;;22.61;74.74;100229.91;10413186;28;20059;-72
2022/07/07 03:13:31;;;;;;;18.20;4.30;;;;;;;22.73;72.10;100254.16;10413102;28;20038;-72
2022/07/07 03:18:31;;;;;;;22.90;4.70;;;;;;;22.17;72.57;100250.69;10409814;28;20526;-72
2022/07/07 03:23:32;;;;;;;4.55;3.20;;;;;;;21.65;73.31;100257.06;10412901;28;20038;-72
2022/07/07 03:28:33;;;;;;;15.95;3.78;;;;;;;20.69;74.20;100157.69;10412853;28;20052;-72
2022/07/07 03:33:34;;;;;;;9.48;3.95;;;;;;;20.96;73.93;100160.66;10413074;28;20072;-73
2022/07/07 03:38:34;;;;;;;8.60;3.53;;;;;;;22.74;69.27;100213.31;10417143;28;20136;-72
2022/07/07 03:43:35;;;;;;;9.43;3.05;;;;;;;24.69;64.14;100242.25;10421428;28;20041;-72
2022/07/07 03:48:36;;;;;;;9.48;3.03;;;;;;;25.54;60.84;100250.97;10420173;28;20076;-73
2022/07/07 03:53:37;;;;;;;31.05;4.28;;;;;;;26.05;58.80;100217.56;10421242;28;20524;-73
2022/07/07 03:58:38;;;;;;;8.48;3.10;;;;;;;26.64;56.14;100246.88;10420357;28;20079;-73
2022/07/07 04:03:38;;;;;;;9.55;3.17;;;;;;;26.62;55.84;100249.91;10419390;28;20187;-72
2022/07/07 04:08:39;;;;;;;7.97;3.35;;;;;;;26.78;55.51;100247.94;10418899;28;20050;-72
2022/07/07 04:13:40;;;;;;;8.20;2.90;;;;;;;26.99;54.39;100253.31;10416412;28;20041;-72
2022/07/07 04:18:41;;;;;;;14.90;2.67;;;;;;;27.58;53.29;100237.97;10413434;28;20041;-72
2022/07/07 04:23:42;;;;;;;9.18;2.72;;;;;;;27.41;51.95;100149.19;10414410;28;20041;-74
2022/07/07 04:28:43;;;;;;;11.65;3.00;;;;;;;27.85;51.72;100234.81;10383192;28;20104;-72
2022/07/07 04:33:44;;;;;;;10.20;3.20;;;;;;;27.33;52.40;100231.59;10416160;28;20060;-72
2022/07/07 04:38:45;;;;;;;13.00;3.38;;;;;;;26.40;52.80;100148.59;10415397;28;20041;-77
2022/07/07 04:43:46;;;;;;;6.00;2.88;;;;;;;26.64;53.77;100217.72;10391878;28;20057;-71
2022/07/07 04:48:47;;;;;;;8.30;2.60;;;;;;;26.21;54.04;100212.91;10395514;28;20052;-73
2022/07/07 04:53:47;;;;;;;16.10;3.50;;;;;;;25.39;56.12;100237.34;10376538;28;20033;-70
2022/07/07 04:58:48;;;;;;;7.75;2.97;;;;;;;25.51;55.82;100184.31;10376469;28;20088;-70
2022/07/07 05:03:49;;;;;;;5.90;2.83;;;;;;;24.75;55.66;100113.50;10376241;28;20399;-71
2022/07/07 05:08:50;;;;;;;8.50;3.50;;;;;;;25.11;56.26;100235.91;10375731;28;20038;-71
2022/07/07 05:13:51;;;;;;;8.57;3.38;;;;;;;24.71;55.15;100112.41;10375722;28;20045;-69
2022/07/07 05:18:51;;;;;;;11.40;3.30;;;;;;;25.59;55.09;100233.84;10376481;28;20042;-71
2022/07/07 05:23:52;;;;;;;11.15;3.00;;;;;;;24.84;54.64;100103.75;10375438;28;20038;-70
2022/07/07 05:28:53;;;;;;;8.05;3.10;;;;;;;25.38;55.11;100233.81;10375780;28;20528;-71
2022/07/07 05:33:54;;;;;;;10.15;2.95;;;;;;;24.92;54.12;100105.94;10374938;28;20473;-70
2022/07/07 05:38:55;;;;;;;7.97;3.22;;;;;;;24.96;54.36;100098.88;10375690;28;20038;-68
2022/07/07 05:43:56;;;;;;;10.32;3.00;;;;;;;25.70;53.85;100203.66;10376065;28;20046;-71
2022/07/07 05:48:57;;;;;;;12.20;2.80;;;;;;;25.65;53.48;100184.63;10374327;28;20137;-70
2022/07/07 05:53:57;;;;;;;11.15;3.50;;;;;;;25.72;53.45;100181.63;10374394;28;20167;-71
2022/07/07 05:58:58;;;;;;;9.25;2.72;;;;;;;25.91;52.23;100187.38;10373642;28;20048;-67
2022/07/07 06:03:59;;;;;;;7.53;2.63;;;;;;;25.41;52.26;100075.56;10374965;28;20477;-72
2022/07/07 06:09:00;;;;;;;8.88;2.53;;;;;;;26.30;51.26;100157.63;10373585;28;20045;-70
2022/07/07 06:14:00;;;;;;;16.02;3.22;;;;;;;24.62;51.75;99923.88;10374322;28;20125;-72
2022/07/07 06:19:01;;;;;;;16.60;3.08;;;;;;;25.64;50.65;100032.56;10373406;28;20129;-72
2022/07/07 06:24:02;;;;;;;12.00;2.90;;;;;;;25.67;50.37;100060.03;10373518;28;20100;-72
2022/07/07 06:29:03;;;;;;;11.68;2.90;;;;;;;26.29;50.69;100160.59;10372952;28;20042;-72
2022/07/07 06:34:04;;;;;;;19.40;2.90;;;;;;;25.93;50.27;100063.50;10373287;28;20058;-72
2022/07/07 06:39:05;;;;;;;8.07;2.83;;;;;;;26.88;49.98;100153.59;10373285;28;20497;-72
2022/07/07 06:44:09;;;;;;;12.70;3.20;;;;;;;26.62;48.13;100042.00;10372890;28;20104;-70
2022/07/07 06:49:10;;;;;;;11.38;2.72;;;;;;;27.27;47.87;100131.81;10372684;28;20124;-75
2022/07/07 06:54:11;;;;;;;13.80;2.63;;;;;;;27.30;48.22;100148.44;10372299;28;20050;-71
2022/07/07 06:59:12;;;;;;;8.48;2.90;;;;;;;26.70;48.05;100016.88;10385221;28;20072;-72
2022/07/07 07:04:16;;;;;;;24.58;3.60;;;;;;;27.40;47.33;100133.91;10387395;28;20134;-71
2022/07/07 07:09:16;;;;;;;9.57;2.63;;;;;;;27.57;47.22;100133.50;10372032;28;20041;-72
2022/07/07 07:14:17;;;;;;;18.92;2.83;;;;;;;27.80;47.56;100121.03;10371587;28;20490;-70
2022/07/07 07:19:18;;;;;;;11.55;2.63;;;;;;;27.64;46.09;100084.88;10371737;28;20100;-71
2022/07/07 07:24:19;;;;;;;7.82;2.33;;;;;;;27.84;46.31;100118.53;10372127;28;20046;-68
2022/07/07 07:29:20;;;;;;;17.50;3.00;;;;;;;27.25;46.18;99984.03;10371766;28;20061;-71
2022/07/07 07:34:21;;;;;;;22.10;3.28;;;;;;;27.56;45.58;99995.44;10372197;28;20144;-70
2022/07/07 07:39:21;;;;;;;18.75;2.67;;;;;;;27.76;44.80;99981.56;10371937;28;20132;-71
2022/07/07 07:49:41;;;;;;;12.38;2.55;;;;;;;28.19;44.00;100017.09;10371673;28;20490;-70
2022/07/07 07:54:42;;;;;;;16.38;3.15;;;;;;;28.53;42.50;100046.16;10371903;28;20033;-67
2022/07/07 07:59:43;;;;;;;11.63;3.53;;;;;;;28.26;42.06;99986.69;10373883;28;20477;-70
2022/07/07 08:04:44;;;;;;;21.90;2.75;;;;;;;28.93;41.48;100086.88;10390463;28;20052;-72
2022/07/07 08:09:45;;;;;;;21.92;3.75;;;;;;;29.07;41.96;100083.13;10371942;28;20038;-71
2022/07/07 08:14:45;;;;;;;9.65;2.53;;;;;;;28.84;41.20;100053.94;10371363;28;20512;-69
2022/07/07 08:19:46;;;;;;;13.13;2.45;;;;;;;29.03;40.50;100041.06;10371031;28;20041;-70
2022/07/07 08:24:47;;;;;;;14.15;2.80;;;;;;;28.79;40.37;99999.34;10375448;28;20084;-69
2022/07/07 08:29:50;;;;;;;11.02;2.65;;;;;;;29.09;40.12;100060.94;10378171;28;20050;-72
2022/07/07 08:34:51;;;;;;;8.50;2.35;;;;;;;29.17;38.68;100041.13;10393287;28;20425;-71
2022/07/07 08:39:52;;;;;;;12.55;2.97;;;;;;;29.46;37.66;100040.88;10378200;28;20041;-68
2022/07/07 08:44:53;;;;;;;9.43;2.65;;;;;;;29.66;37.64;100044.41;10377681;28;20390;-67
2022/07/07 08:49:54;;;;;;;16.13;2.60;;;;;;;29.66;37.62;100045.22;10377440;28;20049;-71
2022/07/07 08:54:55;;;;;;;7.13;2.10;;;;;;;29.76;36.23;100049.66;10376623;28;20070;-70
2022/07/07 08:59:56;;;;;;;14.52;2.72;;;;;;;30.01;35.65;100049.19;10377830;28;20517;-70
2022/07/07 09:04:57;;;;;;;20.58;2.65;;;;;;;29.91;34.86;100035.69;10377790;28;20050;-69
2022/07/07 09:09:58;;;;;;;14.55;2.60;;;;;;;30.03;34.74;100037.91;10376633;28;20041;-71
2022/07/07 09:15:04;;;;;;;14.00;2.25;;;;;;;29.71;33.45;99937.53;10374688;28;20041;-70
2022/07/07 09:20:12;;;;;;;16.88;2.53;;;;;;;30.36;33.83;99991.22;10375683;28;20069;-70
2022/07/07 09:25:13;;;;;;;51.22;4.10;;;;;;;30.55;33.63;100005.56;10395095;28;20041;-71
2022/07/07 09:30:29;;;;;;;40.63;3.40;;;;;;;30.57;30.91;99997.84;10386201;28;20499;-71
2022/07/07 09:40:59;;;;;;;14.00;2.75;;;;;;;30.41;30.63;99931.63;10375713;28;20398;-71
2022/07/07 09:46:19;;;;;;;29.75;3.00;;;;;;;30.27;31.74;99928.09;10375042;28;20038;-73
2022/07/07 09:51:26;;;;;;;18.10;2.70;;;;;;;30.17;31.46;99876.28;10375301;28;20210;-73
2022/07/07 09:56:53;;;;;;;12.43;2.50;;;;;;;31.03;29.62;99987.72;10400875;28;20045;-69
2022/07/07 10:01:54;;;;;;;17.30;2.70;;;;;;;31.13;31.10;99979.22;10400027;28;20057;-72
2022/07/07 10:06:57;;;;;;;18.23;3.85;;;;;;;31.37;30.97;99985.19;10373827;28;20391;-70
2022/07/07 10:11:58;;;;;;;;;;;;;;;31.51;31.00;99959.59;10374712;28;20132;-72
2022/07/07 10:17:01;;;;;;;33.42;3.38;;;;;;;31.42;29.41;99950.50;10374267;28;20357;-71
2022/07/07 10:22:03;;;;;;;15.65;2.75;;;;;;;31.49;30.41;99959.09;10373797;28;20046;-72
2022/07/07 10:27:04;;;;;;;17.90;3.03;;;;;;;31.37;30.13;99956.94;10375183;28;20045;-71
2022/07/07 10:32:16;;;;;;;11.55;2.35;;;;;;;31.53;30.09;99933.44;10412720;28;20405;-69
2022/07/07 10:37:18;;;;;;;;;;;;;;;31.86;29.46;99956.91;10412491;28;20053;-69
2022/07/07 10:42:37;;;;;;;16.38;3.25;;;;;;;31.65;28.91;99954.78;10413500;28;19921;-71
2022/07/07 10:47:38;;;;;;;15.18;2.95;;;;;;;30.87;28.50;99841.94;10399463;28;20149;-71
2022/07/07 10:52:41;;;;;;;26.15;2.65;;;;;;;31.15;28.65;99955.03;10372871;28;20045;-67
2022/07/07 10:57:47;;;;;;;21.73;3.38;;;;;;;31.34;28.68;99944.66;10388284;28;20136;-69
2022/07/07 11:02:51;;;;;;;19.02;3.05;;;;;;;31.36;28.45;99964.38;10383927;28;20095;-71
2022/07/07 11:07:59;;;;;;;21.17;3.10;;;;;;;31.37;27.79;99944.00;10411978;28;20485;-70
2022/07/07 11:13:17;;;;;;;20.15;2.90;;;;;;;31.49;27.62;99937.13;10412014;28;20075;-71
2022/07/07 11:18:19;;;;;;;31.75;3.75;;;;;;;31.56;27.91;99937.47;10412697;28;20042;-69
2022/07/07 11:23:21;;;;;;;11.70;2.70;;;;;;;31.63;27.77;99926.84;10412388;28;20049;-71
2022/07/07 11:28:23;;;;;;;16.60;2.92;;;;;;;30.91;27.79;99790.84;10413216;28;20041;-71
2022/07/07 11:33:24;;;;;;;22.50;3.75;;;;;;;31.20;27.82;99825.91;10412757;28;20132;-72
2022/07/07 11:38:28;;;;;;;26.42;3.10;;;;;;;31.60;27.97;99905.50;10412032;28;20140;-71
2022/07/07 11:43:29;;;;;;;24.80;3.00;;;;;;;31.59;26.59;99934.06;10407819;28;20045;-70
2022/07/07 11:48:35;;;;;;;36.85;3.72;;;;;;;30.99;28.07;99814.72;10384365;28;20050;-71
2022/07/07 11:53:35;;;;;;;25.48;3.20;;;;;;;31.51;26.86;99904.69;10405285;28;20124;-70
2022/07/07 11:58:36;;;;;;;23.08;3.08;;;;;;;31.52;26.84;99903.53;10414875;28;20041;-70
2022/07/07 12:03:37;;;;;;;23.67;2.58;;;;;;;31.13;27.39;99811.88;10381316;28;20042;-71
2022/07/07 12:08:38;;;;;;;27.00;3.80;;;;;;;31.42;27.19;99879.16;10378403;28;20476;-69
2022/07/07 12:13:39;;;;;;;22.55;3.60;;;;;;;31.43;27.94;99880.75;10394236;28;20042;-71
2022/07/07 12:18:41;;;;;;;41.35;4.68;;;;;;;31.54;27.01;99902.09;10393612;28;20057;-69
2022/07/07 12:23:44;;;;;;;;;;;;;;;31.61;26.23;99891.44;10378661;28;20034;-69
2022/07/07 12:28:44;;;;;;;;;;;;;;;31.62;25.90;99878.56;10407865;28;19921;-69
2022/07/07 12:33:45;;;;;;;33.28;4.00;;;;;;;31.31;26.85;99868.41;10415419;28;19971;-70
2022/07/07 12:38:54;;;;;;;12.80;2.63;;;;;;;30.98;26.20;99776.66;10403794;28;20041;-70
2022/07/07 12:44:09;;;;;;;24.58;3.33;;;;;;;31.60;26.29;99880.81;10409471;28;20046;-69
2022/07/07 12:49:11;;;;;;;23.13;3.40;;;;;;;31.51;26.60;99872.53;10415519;28;20053;-68
2022/07/07 12:54:29;;;;;;;17.75;3.17;;;;;;;31.31;26.73;99875.84;10408590;28;20037;-69
2022/07/07 12:59:44;;;;;;;16.98;3.53;;;;;;;31.31;27.35;99846.47;10405797;28;20133;-68
2022/07/07 13:04:45;;;;;;;17.13;2.88;;;;;;;31.41;27.13;99855.56;10375677;28;20038;-69
2022/07/07 13:09:46;;;;;;;36.77;3.60;;;;;;;31.27;27.62;99837.25;10374628;28;20077;-67
2022/07/07 13:14:47;;;;;;;16.08;3.10;;;;;;;30.86;27.27;99791.78;10389468;28;20085;-68
2022/07/07 13:19:50;;;;;;;54.47;5.60;;;;;;;31.18;27.65;99858.38;10376469;28;20038;-70
2022/07/07 13:24:51;;;;;;;;;;;;;;;31.34;26.70;99856.81;10407346;28;20096;-69
2022/07/07 13:29:51;;;;;;;17.23;3.08;;;;;;;30.33;27.51;99737.81;10414312;28;19964;-69
2022/07/07 13:34:53;;;;;;;37.55;4.68;;;;;;;31.05;27.66;99849.13;10402080;28;20049;-70
2022/07/07 13:39:54;;;;;;;23.98;3.40;;;;;;;31.08;27.44;99858.63;10411490;28;20041;-69
2022/07/07 13:44:54;;;;;;;20.88;3.10;;;;;;;31.05;27.63;99876.56;10405260;28;20045;-70
2022/07/07 13:49:59;;;;;;;13.88;2.65;;;;;;;30.29;27.87;99749.72;10400890;28;20045;-70
2022/07/07 13:54:59;;;;;;;24.63;3.50;;;;;;;30.91;27.28;99865.69;10402154;28;20049;-70
2022/07/07 14:00:01;;;;;;;22.98;3.50;;;;;;;29.46;27.91;99676.94;10402114;28;20505;-69
2022/07/07 14:05:03;;;;;;;21.45;3.10;;;;;;;30.11;27.71;99773.44;10411415;28;20076;-69
2022/07/07 14:10:04;;;;;;;26.58;2.90;;;;;;;30.62;27.79;99879.03;10411850;28;20087;-70
2022/07/07 14:15:06;;;;;;;17.52;3.30;;;;;;;29.93;28.03;99789.72;10403681;28;20075;-67
2022/07/07 14:20:08;;;;;;;23.05;3.45;;;;;;;30.45;28.42;99875.06;10397039;28;20096;-69
2022/07/07 14:25:09;;;;;;;25.30;3.50;;;;;;;30.40;28.38;99877.13;10380301;28;20046;-67
2022/07/07 14:30:11;;;;;;;48.42;4.65;;;;;;;30.17;28.90;99857.91;10413925;28;20049;-68
2022/07/07 14:35:12;;;;;;;18.17;3.07;;;;;;;30.30;29.10;99886.38;10408510;28;20058;-68
2022/07/07 14:40:13;;;;;;;24.27;3.70;;;;;;;29.92;29.02;99839.34;10390865;28;20046;-68
2022/07/07 14:45:14;;;;;;;22.00;3.42;;;;;;;29.64;29.07;99803.00;10390521;28;20469;-67
2022/07/07 14:50:15;;;;;;;30.27;4.32;;;;;;;29.72;28.75;99857.84;10376944;28;20061;-69
2022/07/07 14:55:16;;;;;;;44.25;4.05;;;;;;;29.85;29.18;99890.97;10400453;28;20041;-67
2022/07/07 15:00:18;;;;;;;33.55;3.45;;;;;;;29.66;29.32;99891.09;10413172;28;20456;-68
2022/07/07 15:05:19;;;;;;;20.00;3.27;;;;;;;29.60;29.84;99892.31;10395094;28;20413;-70
2022/07/07 15:10:20;;;;;;;28.25;4.00;;;;;;;29.44;29.89;99880.88;10390592;28;20056;-70
2022/07/07 15:15:20;;;;;;;28.20;3.42;;;;;;;29.26;29.87;99882.59;10371802;28;20041;-70
2022/07/07 15:20:22;;;;;;;32.35;3.28;;;;;;;29.23;30.09;99883.22;10371688;28;20046;-70
2022/07/07 15:25:23;;;;;;;19.10;3.58;;;;;;;29.18;30.13;99894.25;10371616;28;20096;-69
2022/07/07 15:30:23;;;;;;;29.08;3.90;;;;;;;29.05;30.57;99902.13;10413492;28;20452;-69
2022/07/07 15:35:24;;;;;;;28.70;3.60;;;;;;;28.72;30.56;99867.69;10418859;28;20199;-67
2022/07/07 15:40:25;;;;;;;33.63;4.68;;;;;;;28.80;30.90;99903.34;10420521;28;20165;-69
2022/07/07 15:45:26;;;;;;;72.20;7.15;;;;;;;28.64;31.15;99908.28;10420822;28;20049;-70
2022/07/07 15:50:27;;;;;;;36.25;4.55;;;;;;;28.32;31.47;99897.28;10420439;28;20085;-71
2022/07/07 15:55:27;;;;;;;78.00;6.88;;;;;;;28.26;31.63;99914.88;10410409;28;20042;-69
2022/07/07 16:00:28;;;;;;;18.95;3.42;;;;;;;27.91;32.15;99898.72;10383342;28;20106;-69
2022/07/07 16:05:29;;;;;;;33.03;3.67;;;;;;;27.10;32.61;99794.09;10420654;28;20504;-68
2022/07/07 16:10:30;;;;;;;17.65;3.15;;;;;;;27.09;32.86;99822.47;10383786;28;20144;-71
2022/07/07 16:15:31;;;;;;;38.22;5.00;;;;;;;27.48;33.22;99928.69;10385883;28;20041;-70
2022/07/07 16:20:31;;;;;;;25.52;3.65;;;;;;;27.03;33.70;99892.59;10418424;28;20401;-69
2022/07/07 16:25:32;;;;;;;20.58;3.83;;;;;;;26.93;34.24;99914.53;10419574;28;20037;-69
2022/07/07 16:30:33;;;;;;;26.77;5.78;;;;;;;26.14;35.18;99819.25;10417778;28;20049;-69
2022/07/07 16:35:34;;;;;;;40.10;5.28;;;;;;;26.62;35.98;99943.91;10378049;28;20520;-66
2022/07/07 16:40:36;;;;;;;66.38;6.20;;;;;;;26.33;36.17;99947.38;10377276;28;20042;-68
2022/07/07 16:45:37;;;;;;;37.40;4.75;;;;;;;26.05;36.93;99939.91;10377629;28;20056;-68
2022/07/07 16:50:38;;;;;;;29.48;5.30;;;;;;;26.03;37.00;99961.97;10377400;28;20042;-69
2022/07/07 16:55:39;;;;;;;32.53;3.90;;;;;;;24.93;37.44;99827.72;10384542;28;20402;-69
2022/07/07 17:00:40;;;;;;;38.42;4.88;;;;;;;25.72;37.40;99981.09;10408888;28;20128;-69
2022/07/07 17:05:40;;;;;;;25.95;3.97;;;;;;;24.86;37.96;99870.66;10377046;28;20038;-69
2022/07/07 17:10:41;;;;;;;59.20;6.30;;;;;;;25.47;38.10;100001.03;10398636;28;20128;-70
2022/07/07 17:15:43;;;;;;;29.55;4.75;;;;;;;25.30;38.40;100002.44;10417383;28;20045;-68
2022/07/07 17:20:43;;;;;;;36.33;4.93;;;;;;;24.92;39.04;99961.09;10405489;28;20400;-71
2022/07/07 17:25:44;;;;;;;23.35;4.32;;;;;;;25.04;39.06;100019.53;10416909;28;20041;-71
2022/07/07 17:30:45;;;;;;;19.65;3.30;;;;;;;24.95;39.15;100014.91;10414621;28;20057;-70
2022/07/07 17:35:48;;;;;;;18.67;3.72;;;;;;;23.96;39.71;99887.41;10408436;28;20041;-71
2022/07/07 17:40:51;;;;;;;26.45;3.53;;;;;;;24.67;39.11;100022.50;10411350;28;20034;-71
2022/07/07 17:45:52;;;;;;;19.27;3.10;;;;;;;24.31;39.58;100022.38;10413713;28;20045;-68
2022/07/07 17:50:52;;;;;;;18.63;3.10;;;;;;;24.27;40.15;100023.19;10413763;28;20049;-71
2022/07/07 17:55:53;;;;;;;15.60;2.97;;;;;;;23.45;40.33;99917.00;10404785;28;20049;-69
2022/07/07 18:00:54;;;;;;;10.30;2.10;;;;;;;23.95;40.74;100017.91;10382991;28;20489;-70
2022/07/07 18:05:55;;;;;;;18.77;2.17;;;;;;;23.00;41.21;99889.41;10415695;28;20037;-71
2022/07/07 18:10:56;;;;;;;12.93;2.30;;;;;;;23.72;41.12;100030.78;10384411;28;20128;-70
2022/07/07 18:15:57;;;;;;;10.55;2.20;;;;;;;23.46;41.85;100008.09;10384304;28;20069;-70
2022/07/07 18:20:58;;;;;;;11.65;2.10;;;;;;;23.28;41.88;100022.91;10405057;28;20081;-70
2022/07/07 18:25:59;;;;;;;10.88;1.75;;;;;;;23.14;42.26;99997.31;10380450;28;20053;-70
2022/07/07 18:31:01;;;;;;;13.52;2.00;;;;;;;23.13;42.81;100009.22;10377070;28;20042;-69
2022/07/07 18:36:02;;;;;;;16.10;2.00;;;;;;;23.12;43.00;100019.22;10374029;28;20112;-70
2022/07/07 18:41:03;;;;;;;11.85;1.90;;;;;;;23.00;43.61;100014.00;10386263;28;20058;-70
2022/07/07 18:46:04;;;;;;;11.20;2.17;;;;;;;22.79;43.99;99998.59;10402290;28;20502;-69
2022/07/07 18:56:25;;;;;;;10.13;1.90;;;;;;;22.56;45.16;100011.41;10372778;28;20125;-69
2022/07/07 19:01:25;;;;;;;5.80;1.52;;;;;;;22.54;45.72;100010.81;10373343;28;20120;-70
2022/07/07 19:06:26;;;;;;;12.80;1.90;;;;;;;22.29;46.21;100002.44;10384198;28;20033;-70
2022/07/07 19:11:27;;;;;;;8.30;1.45;;;;;;;22.15;46.70;99979.53;10407548;28;20132;-73
2022/07/07 19:16:28;;;;;;;6.00;1.77;;;;;;;22.14;47.40;99991.41;10410882;28;20037;-70
2022/07/07 19:21:30;;;;;;;8.52;2.10;;;;;;;22.10;48.11;100001.91;10410803;28;20489;-70
2022/07/07 19:26:31;;;;;;;5.95;1.80;;;;;;;21.02;48.56;99842.13;10405519;28;20638;-71
2022/07/07 19:31:32;;;;;;;8.52;2.00;;;;;;;21.93;49.01;100006.56;10397458;28;20049;-70
2022/07/07 19:36:34;;;;;;;7.50;1.98;;;;;;;21.84;49.37;100011.63;10372386;28;20057;-71
2022/07/07 19:41:34;;;;;;;7.65;1.75;;;;;;;21.69;50.17;99993.31;10382849;28;20405;-69
2022/07/07 19:46:35;;;;;;;8.75;1.67;;;;;;;20.65;50.44;99839.97;10373005;28;20056;-70
2022/07/07 19:51:37;;;;;;;11.93;2.15;;;;;;;21.47;51.02;99987.84;10371309;28;20044;-71
2022/07/07 19:56:38;;;;;;;8.70;1.55;;;;;;;21.49;51.45;99998.41;10376382;28;20045;-70
2022/07/07 20:01:39;;;;;;;9.60;1.63;;;;;;;21.39;52.05;100004.50;10376701;28;20037;-71
2022/07/07 20:06:40;;;;;;;7.43;1.90;;;;;;;21.26;52.81;100002.91;10371931;28;20390;-70
2022/07/07 20:11:41;;;;;;;6.32;1.98;;;;;;;21.19;53.16;100003.06;10371989;28;20038;-71
2022/07/07 20:16:42;;;;;;;5.07;1.60;;;;;;;21.14;52.73;99996.78;10403600;28;20052;-72
2022/07/07 20:21:43;;;;;;;5.78;1.75;;;;;;;20.36;53.45;99876.97;10418142;28;20387;-71
2022/07/07 20:26:44;;;;;;;8.82;1.55;;;;;;;20.00;53.85;99831.31;10416825;28;20953;-71
2022/07/07 20:31:46;;;;;;;5.93;1.88;;;;;;;19.68;54.65;99785.16;10418545;28;20128;-71
2022/07/07 20:36:47;;;;;;;5.93;1.70;;;;;;;20.82;54.86;99970.34;10417952;28;20061;-71
2022/07/07 20:41:48;;;;;;;7.95;1.80;;;;;;;20.08;55.78;99862.47;10419096;28;20519;-71
2022/07/07 20:46:49;;;;;;;4.53;1.42;;;;;;;19.40;56.45;99764.41;10399901;28;20132;-71
2022/07/07 20:51:49;;;;;;;6.75;1.70;;;;;;;20.74;56.91;99978.84;10406434;28;20099;-71
2022/07/07 20:56:51;;;;;;;7.53;1.95;;;;;;;20.68;57.84;99977.13;10418296;28;20041;-70
2022/07/07 21:02:01;;;;;;;3.78;1.70;;;;;;;20.58;58.44;99969.69;10416448;28;20041;-71
2022/07/07 21:07:03;;;;;;;10.57;2.05;;;;;;;20.39;59.09;99965.50;10392557;28;20050;-70
2022/07/07 21:12:04;;;;;;;3.83;1.48;;;;;;;20.09;59.44;99930.69;10377299;28;20049;-70
2022/07/07 21:17:06;;;;;;;6.95;2.00;;;;;;;19.64;59.88;99853.22;10377134;28;20096;-71
2022/07/07 21:22:07;;;;;;;8.52;2.15;;;;;;;20.21;60.40;99966.50;10376609;28;20041;-71
2022/07/07 21:27:10;;;;;;;7.25;1.95;;;;;;;20.26;60.58;99978.22;10375684;28;20080;-71
2022/07/07 21:32:11;;;;;;;21.38;2.58;;;;;;;20.14;61.40;99973.94;10374508;28;20513;-71
2022/07/07 21:37:12;;;;;;;13.68;2.13;;;;;;;20.02;61.97;99964.00;10390817;28;20072;-71
2022/07/07 21:42:15;;;;;;;3.17;1.75;;;;;;;19.99;62.59;99980.66;10375498;28;20041;-71
2022/07/07 21:47:16;;;;;;;4.27;1.73;;;;;;;19.90;63.37;99979.41;10393216;28;20489;-71
2022/07/07 21:52:18;;;;;;;5.50;1.90;;;;;;;19.78;64.22;99975.91;10415747;28;20053;-71
2022/07/07 21:57:19;;;;;;;6.80;2.05;;;;;;;19.75;64.27;99973.69;10413879;28;20103;-72
2022/07/07 22:02:20;;;;;;;10.18;2.15;;;;;;;19.65;65.01;99989.63;10415147;28;20057;-72
2022/07/07 22:07:21;;;;;;;7.20;1.98;;;;;;;18.77;65.65;99846.81;10415054;28;20489;-71
2022/07/07 22:12:22;;;;;;;4.78;1.80;;;;;;;19.56;65.88;99994.50;10415150;28;20037;-71
2022/07/07 22:17:25;;;;;;;7.68;2.00;;;;;;;19.52;66.06;99991.47;10414582;28;20041;-71
2022/07/07 22:22:26;;;;;;;4.13;1.90;;;;;;;19.52;66.45;99999.56;10414390;28;20053;-71
2022/07/07 22:27:27;;;;;;;4.07;1.88;;;;;;;18.72;66.51;99881.63;10413904;28;20052;-72
2022/07/07 22:32:27;;;;;;;8.75;2.17;;;;;;;19.49;66.79;100002.72;10411519;28;20603;-70
2022/07/07 22:37:28;;;;;;;7.97;1.88;;;;;;;19.46;67.04;100008.59;10406005;28;20500;-71
2022/07/07 22:42:29;;;;;;;4.00;1.95;;;;;;;18.68;67.32;99889.34;10381886;28;20046;-71
2022/07/07 22:47:41;;;;;;;7.90;2.15;;;;;;;19.39;69.74;100013.28;10396866;28;20498;-70
2022/07/07 22:52:42;;;;;;;4.07;1.80;;;;;;;19.14;68.20;99995.47;10413322;28;20038;-70
2022/07/07 22:57:43;;;;;;;11.23;2.72;;;;;;;19.27;68.73;100005.19;10388093;28;20042;-70
2022/07/07 23:02:44;;;;;;;7.18;2.28;;;;;;;19.27;68.97;100004.38;10372813;28;20049;-70
2022/07/07 23:07:45;;;;;;;7.13;1.73;;;;;;;17.86;68.81;99788.88;10373121;28;20045;-70
2022/07/07 23:12:46;;;;;;;4.93;1.95;;;;;;;18.28;69.09;99861.44;10372664;28;20125;-71
2022/07/07 23:17:46;;;;;;;7.47;2.00;;;;;;;18.97;69.27;99986.44;10372273;28;20319;-71
2022/07/07 23:22:47;;;;;;;4.78;2.25;;;;;;;18.99;69.67;99992.38;10371222;28;20459;-71